Time;durP1;ratioP1;P1;durP2;ratioP2;P2;SDS_P1;SDS_P2;PMS_P1;PMS_P2;Temp;Humidity;BMP_temperature;BMP_pressure;BME280_temperature;BME280_humidity;BME280_pressure;Samples;Min_cycle;Max_cycle;Signal;HPM_P1;HPM_P2
2022/04/19 00:00:10;;;;;;;;;;;18.60;56.90;;;;;;5041914;28;20528;-56
2022/04/19 00:02:35;;;;;;;;;;;18.60;56.90;;;;;;5040575;28;19923;-52
2022/04/19 00:05:01;;;;;;;;;;;18.60;56.90;;;;;;5036007;28;19924;-55
2022/04/19 00:07:27;;;;;;;;;;;18.60;56.90;;;;;;5022249;28;20660;-56
2022/04/19 00:09:52;;;;;;;;;;;18.60;57.60;;;;;;5037051;28;19946;-55
2022/04/19 00:12:18;;;;;;;;;;;18.60;57.00;;;;;;5043109;28;19962;-50
2022/04/19 00:14:44;;;;;;;;;;;18.50;56.90;;;;;;5038093;28;19925;-52
2022/04/19 00:17:09;;;;;;;;;;;18.60;57.00;;;;;;5033857;28;20301;-54
2022/04/19 00:19:36;;;;;;;;;;;18.50;56.90;;;;;;5025236;28;19991;-58
2022/04/19 00:22:02;;;;;;;;;;;18.50;57.00;;;;;;5021308;28;19945;-55
2022/04/19 00:24:28;;;;;;;;;;;18.50;56.90;;;;;;5030962;28;20593;-53
2022/04/19 00:26:55;;;;;;;;;;;18.50;56.90;;;;;;5033862;28;20032;-57
2022/04/19 00:29:20;;;;;;;;;;;18.50;56.90;;;;;;5037339;28;20007;-53
2022/04/19 00:31:46;;;;;;;;;;;18.50;56.90;;;;;;5042895;28;19939;-56
2022/04/19 00:34:11;;;;;;;;;;;18.50;56.90;;;;;;5037983;28;19917;-57
2022/04/19 00:36:37;;;;;;;;;;;18.50;56.90;;;;;;5022792;28;20071;-54
2022/04/19 00:39:03;;;;;;;;;;;18.50;56.90;;;;;;5028376;28;19944;-50
2022/04/19 00:41:29;;;;;;;;;;;18.50;57.00;;;;;;5042861;28;19952;-53
2022/04/19 00:43:54;;;;;;;;;;;18.50;56.90;;;;;;5040207;28;19928;-53
2022/04/19 00:46:20;;;;;;;;;;;18.50;56.90;;;;;;5022314;28;19913;-59
2022/04/19 00:48:46;;;;;;;;;;;18.50;57.00;;;;;;5024355;28;20826;-57
2022/04/19 00:51:11;;;;;;;;;;;18.50;56.90;;;;;;5042622;28;20390;-53
2022/04/19 00:53:37;;;;;;;;;;;18.50;56.90;;;;;;5040133;28;19917;-55
2022/04/19 00:56:03;;;;;;;;;;;18.50;56.90;;;;;;5033974;28;19917;-54
2022/04/19 00:58:28;;;;;;;;;;;18.50;56.90;;;;;;5034403;28;19917;-56
2022/04/19 01:00:54;;;;;;;;;;;18.50;56.90;;;;;;5038943;28;20494;-51
2022/04/19 01:03:21;;;;;;;;;;;18.50;56.90;;;;;;5039822;28;19913;-52
2022/04/19 01:05:47;;;;;;;;;;;18.50;56.90;;;;;;5036940;28;19965;-52
2022/04/19 01:08:12;;;;;;;;;;;18.40;56.90;;;;;;5021423;28;20016;-58
2022/04/19 01:10:38;;;;;;;;;;;18.50;57.00;;;;;;5040035;28;20284;-57
2022/04/19 01:13:19;;;;;;;;;;;18.40;56.90;;;;;;5040742;28;19940;-55
2022/04/19 01:15:45;;;;;;;;;;;18.50;56.90;;;;;;5033210;28;20028;-56
2022/04/19 01:18:10;;;;;;;;;;;18.40;56.90;;;;;;5038930;28;20271;-56
2022/04/19 01:20:38;;;;;;;;;;;18.40;56.90;;;;;;5031154;28;19977;-58
2022/04/19 01:23:03;;;;;;;;;;;18.40;56.90;;;;;;5043652;28;19939;-55
2022/04/19 01:25:28;;;;;;;;;;;18.40;56.80;;;;;;5040916;28;19913;-53
2022/04/19 01:27:54;;;;;;;;;;;18.40;56.90;;;;;;5036333;28;19975;-53
2022/04/19 01:30:19;;;;;;;;;;;18.40;56.90;;;;;;5031493;28;19921;-54
2022/04/19 01:32:45;;;;;;;;;;;18.40;56.90;;;;;;5046204;28;19991;-54
2022/04/19 01:35:11;;;;;;;;;;;18.40;56.90;;;;;;5042377;28;19917;-50
2022/04/19 01:37:37;;;;;;;;;;;18.40;56.80;;;;;;5040216;28;20373;-51
2022/04/19 01:40:18;;;;;;;;;;;18.40;56.90;;;;;;5032511;28;19913;-50
2022/04/19 01:42:45;;;;;;;;;;;18.40;56.90;;;;;;5025394;28;19917;-56
2022/04/19 01:45:11;;;;;;;;;;;18.40;56.90;;;;;;5029819;28;19916;-54
2022/04/19 01:47:39;;;;;;;;;;;18.40;56.90;;;;;;5036994;28;20007;-56
2022/04/19 01:50:08;;;;;;;;;;;18.40;56.90;;;;;;5029640;28;20006;-53
2022/04/19 01:52:35;;;;;;;;;;;18.40;56.90;;;;;;5016442;28;20044;-59
2022/04/19 01:55:00;;;;;;;;;;;18.40;56.90;;;;;;5025706;28;20349;-51
2022/04/19 01:57:26;;;;;;;;;;;18.40;56.90;;;;;;5039785;28;19966;-54
2022/04/19 01:59:51;;;;;;;;;;;18.40;56.90;;;;;;5034607;28;19913;-57
2022/04/19 02:02:17;;;;;;;;;;;18.30;56.80;;;;;;5044620;28;20293;-54
2022/04/19 02:04:42;;;;;;;;;;;18.40;56.90;;;;;;5044564;28;21421;-53
2022/04/19 02:07:08;;;;;;;;;;;18.30;56.80;;;;;;5036430;28;19983;-58
2022/04/19 02:09:34;;;;;;;;;;;18.40;56.90;;;;;;5038429;28;19912;-51
2022/04/19 02:12:00;;;;;;;;;;;18.40;56.90;;;;;;5024717;28;19936;-52
2022/04/19 02:14:26;;;;;;;;;;;18.30;56.80;;;;;;5025358;28;20426;-55
2022/04/19 02:16:53;;;;;;;;;;;18.30;56.80;;;;;;5033497;28;19921;-52
2022/04/19 02:19:18;;;;;;;;;;;18.30;56.80;;;;;;5021139;28;20043;-57
2022/04/19 02:21:45;;;;;;;;;;;18.30;56.80;;;;;;5032072;28;20386;-56
2022/04/19 02:24:10;;;;;;;;;;;18.30;56.80;;;;;;5043571;28;20635;-54
2022/04/19 02:26:36;;;;;;;;;;;18.30;56.80;;;;;;5040783;28;19923;-55
2022/04/19 02:29:01;;;;;;;;;;;18.30;56.80;;;;;;5036082;28;20341;-57
2022/04/19 02:31:27;;;;;;;;;;;18.30;56.80;;;;;;5030098;28;19921;-55
2022/04/19 02:33:53;;;;;;;;;;;18.30;56.80;;;;;;5044076;28;20389;-55
2022/04/19 02:36:19;;;;;;;;;;;18.30;56.80;;;;;;5040141;28;19925;-56
2022/04/19 02:38:45;;;;;;;;;;;18.30;56.80;;;;;;5039679;28;20370;-56
2022/04/19 02:41:10;;;;;;;;;;;18.30;56.80;;;;;;5032033;28;19924;-57
2022/04/19 02:43:36;;;;;;;;;;;18.30;56.80;;;;;;5043042;28;20288;-56
2022/04/19 02:46:01;;;;;;;;;;;18.30;56.80;;;;;;5042489;28;19917;-54
2022/04/19 02:48:28;;;;;;;;;;;18.30;56.80;;;;;;5023005;28;20299;-57
2022/04/19 02:50:53;;;;;;;;;;;18.30;56.80;;;;;;5038043;28;19921;-56
2022/04/19 02:53:19;;;;;;;;;;;18.30;56.80;;;;;;5044836;28;20484;-54
2022/04/19 02:55:45;;;;;;;;;;;18.30;56.80;;;;;;5044616;28;19928;-63
2022/04/19 02:58:10;;;;;;;;;;;18.30;56.80;;;;;;5025030;28;19921;-56
2022/04/19 03:00:36;;;;;;;;;;;18.20;56.80;;;;;;5024434;28;19920;-56
2022/04/19 03:03:01;;;;;;;;;;;18.30;56.80;;;;;;5030038;28;19948;-57
2022/04/19 03:05:27;;;;;;;;;;;18.20;56.70;;;;;;5044501;28;19917;-56
2022/04/19 03:07:52;;;;;;;;;;;18.20;56.70;;;;;;5037796;28;19967;-55
2022/04/19 03:10:18;;;;;;;;;;;18.20;56.80;;;;;;5022972;28;20281;-57
2022/04/19 03:12:43;;;;;;;;;;;18.20;56.70;;;;;;5035974;28;19916;-54
2022/04/19 03:15:11;;;;;;;;;;;18.20;56.80;;;;;;5044608;28;19921;-56
2022/04/19 03:17:37;;;;;;;;;;;18.20;56.80;;;;;;5038308;28;20653;-55
2022/04/19 03:20:03;;;;;;;;;;;18.20;56.80;;;;;;5033463;28;19963;-55
2022/04/19 03:27:41;;;;;;;;;;;18.20;56.80;;;;;;5029557;28;20548;-55
2022/04/19 03:28:01;;;;;;;;;;;18.20;56.80;;;;;;5044103;28;20066;-55
2022/04/19 03:30:26;;;;;;;;;;;18.20;56.80;;;;;;5041952;28;19944;-57
2022/04/19 03:32:54;;;;;;;;;;;18.20;56.80;;;;;;5040709;28;20098;-52
2022/04/19 03:35:20;;;;;;;;;;;18.20;56.80;;;;;;5042219;28;19928;-57
2022/04/19 03:37:45;;;;;;;;;;;18.20;56.80;;;;;;5043810;28;19966;-57
2022/04/19 03:40:11;;;;;;;;;;;18.20;56.80;;;;;;5043437;28;19964;-55
2022/04/19 03:42:36;;;;;;;;;;;18.20;56.80;;;;;;5043427;28;19962;-53
2022/04/19 03:45:02;;;;;;;;;;;18.10;56.80;;;;;;5039104;28;19916;-56
2022/04/19 03:47:27;;;;;;;;;;;18.10;56.80;;;;;;5041530;28;20354;-57
2022/04/19 03:49:53;;;;;;;;;;;18.10;56.70;;;;;;5040530;28;20513;-57
2022/04/19 03:52:18;;;;;;;;;;;18.10;56.70;;;;;;5043415;28;20068;-55
2022/04/19 03:54:44;;;;;;;;;;;18.20;56.80;;;;;;5043622;28;20486;-56
2022/04/19 03:57:09;;;;;;;;;;;18.10;56.80;;;;;;5025325;28;20151;-55
2022/04/19 03:59:36;;;;;;;;;;;18.10;56.80;;;;;;5041029;28;20023;-56
2022/04/19 04:02:02;;;;;;;;;;;18.10;56.80;;;;;;5041785;28;19994;-56
2022/04/19 04:04:30;;;;;;;;;;;18.10;56.80;;;;;;5041267;28;20382;-56
2022/04/19 04:06:59;;;;;;;;;;;18.10;56.80;;;;;;5043316;28;19917;-56
2022/04/19 04:09:24;;;;;;;;;;;18.10;56.80;;;;;;5039741;28;20476;-58
2022/04/19 04:11:50;;;;;;;;;;;18.10;56.80;;;;;;5042515;28;19952;-56
2022/04/19 04:14:15;;;;;;;;;;;18.10;56.80;;;;;;5042161;28;19924;-58
2022/04/19 04:16:41;;;;;;;;;;;18.10;56.80;;;;;;5043858;28;20580;-56
2022/04/19 04:19:06;;;;;;;;;;;18.10;56.70;;;;;;5040245;28;19924;-55
2022/04/19 04:21:32;;;;;;;;;;;18.10;56.70;;;;;;5042580;28;19917;-57
2022/04/19 04:23:57;;;;;;;;;;;18.10;56.80;;;;;;5042130;28;19949;-57
2022/04/19 04:26:23;;;;;;;;;;;18.10;56.80;;;;;;5041955;28;20023;-57
2022/04/19 04:28:48;;;;;;;;;;;18.10;57.40;;;;;;5040851;28;19921;-56
2022/04/19 04:31:14;;;;;;;;;;;18.10;56.70;;;;;;5043153;28;19963;-57
2022/04/19 04:33:39;;;;;;;;;;;18.10;56.80;;;;;;5042065;28;20595;-57
2022/04/19 04:36:05;;;;;;;;;;;18.10;56.80;;;;;;5050348;22;19960;-50
2022/04/19 04:38:30;;;;;;;;;;;18.10;56.80;;;;;;5044970;28;20329;-51
2022/04/19 04:40:55;;;;;;;;;;;18.10;56.80;;;;;;5044367;28;19916;-51
2022/04/19 04:43:21;;;;;;;;;;;18.10;56.80;;;;;;5045187;28;19913;-50
2022/04/19 04:49:35;;;;;;;;;;;18.10;56.80;;;;;;5044662;28;19931;-50
2022/04/19 04:51:16;;;;;;;;;;;18.10;56.90;;;;;;5045761;28;19966;-46
2022/04/19 04:53:41;;;;;;;;;;;18.10;56.90;;;;;;5044326;28;19920;-49
2022/04/19 04:56:07;;;;;;;;;;;18.00;56.90;;;;;;5045026;28;19924;-50
2022/04/19 04:58:32;;;;;;;;;;;18.00;56.90;;;;;;5043916;28;19939;-49
2022/04/19 05:00:58;;;;;;;;;;;18.00;57.00;;;;;;5044894;28;19919;-49
2022/04/19 05:03:23;;;;;;;;;;;18.10;57.00;;;;;;5045766;28;20355;-50
2022/04/19 05:05:49;;;;;;;;;;;18.00;56.90;;;;;;5046412;28;19944;-49
2022/04/19 05:08:18;;;;;;;;;;;18.10;57.00;;;;;;5045751;28;19966;-48
2022/04/19 05:10:43;;;;;;;;;;;18.10;57.00;;;;;;5034658;28;20009;-49
2022/04/19 05:13:09;;;;;;;;;;;18.10;57.00;;;;;;5044354;28;20423;-53
2022/04/19 05:15:35;;;;;;;;;;;18.10;56.90;;;;;;5045775;28;19917;-50
2022/04/19 05:18:00;;;;;;;;;;;18.10;56.90;;;;;;5043841;28;20089;-52
2022/04/19 05:20:26;;;;;;;;;;;18.10;57.00;;;;;;5045235;28;19962;-48
2022/04/19 05:22:51;;;;;;;;;;;18.10;57.00;;;;;;5043682;28;19920;-48
2022/04/19 05:25:16;;;;;;;;;;;18.20;57.70;;;;;;5042349;28;19912;-51
2022/04/19 05:27:42;;;;;;;;;;;18.20;57.10;;;;;;5042571;28;19975;-47
2022/04/19 05:30:08;;;;;;;;;;;18.10;57.00;;;;;;5043790;28;19912;-50
2022/04/19 05:32:33;;;;;;;;;;;18.20;57.10;;;;;;5045303;28;20383;-50
2022/04/19 05:34:59;;;;;;;;;;;18.20;57.10;;;;;;5043709;28;19917;-49
2022/04/19 05:37:24;;;;;;;;;;;18.20;57.20;;;;;;5045512;28;20304;-52
2022/04/19 05:39:50;;;;;;;;;;;18.20;57.20;;;;;;5045302;28;19920;-49
2022/04/19 05:42:15;;;;;;;;;;;18.10;57.10;;;;;;5045662;28;19917;-48
2022/04/19 05:44:41;;;;;;;;;;;18.20;57.20;;;;;;5045416;28;20460;-49
2022/04/19 05:47:06;;;;;;;;;;;18.20;57.40;;;;;;5043437;28;19963;-51
2022/04/19 05:49:32;;;;;;;;;;;18.20;57.60;;;;;;5044187;28;19912;-51
2022/04/19 05:51:57;;;;;;;;;;;18.20;57.50;;;;;;5044775;28;20366;-51
2022/04/19 05:54:23;;;;;;;;;;;18.20;57.50;;;;;;5045155;28;19939;-49
2022/04/19 05:56:48;;;;;;;;;;;18.20;58.00;;;;;;5045254;28;20097;-49
2022/04/19 05:59:14;;;;;;;;;;;18.30;58.00;;;;;;5038660;28;19916;-49
2022/04/19 06:07:07;;;;;;;;;;;18.30;58.20;;;;;;5044544;28;20012;-50
2022/04/19 06:09:33;;;;;;;;;;;18.30;58.30;;;;;;5045888;28;19917;-53
2022/04/19 06:12:00;;;;;;;;;;;18.30;58.30;;;;;;5046703;28;19919;-50
2022/04/19 06:14:26;;;;;;;;;;;18.20;58.20;;;;;;5047965;28;20293;-49
2022/04/19 06:16:51;;;;;;;;;;;18.30;58.00;;;;;;5048435;28;19913;-51
2022/04/19 06:19:17;;;;;;;;;;;18.20;58.10;;;;;;5047998;28;20320;-49
2022/04/19 06:21:42;;;;;;;;;;;18.20;57.90;;;;;;5048108;28;19920;-49
2022/04/19 06:24:09;;;;;;;;;;;18.20;57.90;;;;;;5047175;28;19967;-49
2022/04/19 06:26:34;;;;;;;;;;;18.20;57.70;;;;;;5048277;28;19913;-50
2022/04/19 06:29:01;;;;;;;;;;;18.20;57.80;;;;;;5046905;28;20064;-50
2022/04/19 06:31:27;;;;;;;;;;;18.20;58.20;;;;;;5046402;28;19913;-49
2022/04/19 06:33:53;;;;;;;;;;;18.20;58.10;;;;;;5046226;28;19913;-48
2022/04/19 06:36:19;;;;;;;;;;;18.20;58.10;;;;;;5044604;28;19928;-47
2022/04/19 06:38:44;;;;;;;;;;;18.30;58.20;;;;;;5046280;28;19924;-51
2022/04/19 06:41:11;;;;;;;;;;;18.20;58.20;;;;;;5044950;28;19917;-50
2022/04/19 06:43:37;;;;;;;;;;;18.20;58.00;;;;;;5046799;28;19917;-50
2022/04/19 06:46:02;;;;;;;;;;;18.20;58.10;;;;;;5047539;28;20353;-51
2022/04/19 06:48:29;;;;;;;;;;;18.20;58.10;;;;;;5047714;28;19958;-49
2022/04/19 06:50:54;;;;;;;;;;;18.20;57.80;;;;;;5048816;28;19920;-50
2022/04/19 06:53:20;;;;;;;;;;;18.20;57.90;;;;;;5048191;28;19913;-49
2022/04/19 06:55:45;;;;;;;;;;;18.30;57.90;;;;;;5049737;28;20385;-50
2022/04/19 06:58:11;;;;;;;;;;;18.20;57.80;;;;;;5049009;28;19935;-51
2022/04/19 07:00:36;;;;;;;;;;;18.30;56.80;;;;;;5048067;28;19924;-52
2022/04/19 07:03:01;;;;;;;;;;;18.60;55.20;;;;;;5049566;28;19921;-54
2022/04/19 07:05:27;;;;;;;;;;;18.80;52.40;;;;;;5049078;28;19920;-50
2022/04/19 07:07:52;;;;;;;;;;;18.80;52.00;;;;;;5048690;28;19913;-49
2022/04/19 07:10:18;;;;;;;;;;;18.80;51.10;;;;;;5048997;28;20284;-50
2022/04/19 07:12:44;;;;;;;;;;;18.80;50.80;;;;;;5047511;28;19917;-51
2022/04/19 07:15:10;;;;;;;;;;;18.80;51.40;;;;;;5048902;28;20331;-50
2022/04/19 07:17:39;;;;;;;;;;;18.90;51.60;;;;;;5049275;28;19924;-50
2022/04/19 07:28:18;;;;;;;;;;;19.00;51.00;;;;;;5051012;28;19923;-49
2022/04/19 07:30:43;;;;;;;;;;;19.00;51.10;;;;;;5049563;28;19916;-47
2022/04/19 07:33:09;;;;;;;;;;;19.00;51.30;;;;;;5048062;28;19913;-50
2022/04/19 07:35:34;;;;;;;;;;;19.00;51.40;;;;;;5047203;28;19971;-48
2022/04/19 07:38:00;;;;;;;;;;;19.00;51.50;;;;;;5049452;28;19913;-50
2022/04/19 07:40:25;;;;;;;;;;;19.10;51.70;;;;;;5049585;28;19917;-50
2022/04/19 07:42:51;;;;;;;;;;;19.00;51.80;;;;;;5049323;28;19938;-52
2022/04/19 07:45:16;;;;;;;;;;;19.10;51.90;;;;;;5047814;28;19920;-51
2022/04/19 07:47:42;;;;;;;;;;;19.00;51.80;;;;;;5047407;28;19913;-51
2022/04/19 07:50:08;;;;;;;;;;;19.00;52.00;;;;;;5046341;28;19925;-49
2022/04/19 07:52:33;;;;;;;;;;;19.10;52.20;;;;;;5047584;28;19920;-49
2022/04/19 07:54:58;;;;;;;;;;;19.10;52.50;;;;;;5047100;28;19917;-49
2022/04/19 07:57:24;;;;;;;;;;;19.10;52.60;;;;;;5044795;28;20484;-51
2022/04/19 07:59:53;;;;;;;;;;;19.10;52.60;;;;;;5045104;28;19935;-48
2022/04/19 08:02:19;;;;;;;;;;;19.10;52.60;;;;;;5046318;28;19912;-51
2022/04/19 08:04:45;;;;;;;;;;;19.10;52.60;;;;;;5046636;28;19921;-49
2022/04/19 08:07:10;;;;;;;;;;;19.10;52.60;;;;;;5045210;28;19970;-48
2022/04/19 08:09:36;;;;;;;;;;;19.10;52.70;;;;;;5046098;28;20629;-51
2022/04/19 08:12:01;;;;;;;;;;;19.10;52.70;;;;;;5047470;28;19913;-51
2022/04/19 08:14:27;;;;;;;;;;;19.10;52.70;;;;;;5045311;28;19921;-50
2022/04/19 08:16:52;;;;;;;;;;;19.10;52.70;;;;;;5045423;28;20286;-49
2022/04/19 08:19:18;;;;;;;;;;;19.10;52.70;;;;;;5044721;28;19920;-45
2022/04/19 08:21:43;;;;;;;;;;;19.10;52.70;;;;;;5045298;28;19913;-50
2022/04/19 08:24:09;;;;;;;;;;;19.10;52.70;;;;;;5044749;28;19916;-50
2022/04/19 08:26:35;;;;;;;;;;;19.10;52.80;;;;;;5044285;28;20293;-49
2022/04/19 08:29:00;;;;;;;;;;;19.10;52.70;;;;;;5043537;28;19913;-48
2022/04/19 08:31:27;;;;;;;;;;;19.10;52.70;;;;;;5045222;28;19917;-48
2022/04/19 08:33:53;;;;;;;;;;;19.10;52.70;;;;;;5044700;28;19916;-48
2022/04/19 08:36:19;;;;;;;;;;;19.10;52.70;;;;;;5044396;28;19921;-49
2022/04/19 08:38:46;;;;;;;;;;;19.10;52.80;;;;;;5044543;28;19913;-51
2022/04/19 08:41:12;;;;;;;;;;;19.10;52.70;;;;;;5042681;28;19913;-48
2022/04/19 08:43:38;;;;;;;;;;;19.10;52.70;;;;;;5044202;28;20400;-50
2022/04/19 08:46:04;;;;;;;;;;;19.10;52.70;;;;;;5043327;28;19913;-51
2022/04/19 08:48:31;;;;;;;;;;;19.10;52.70;;;;;;5042605;28;19913;-51
2022/04/19 08:50:57;;;;;;;;;;;19.10;52.70;;;;;;5042962;28;19959;-48
2022/04/19 08:58:50;;;;;;;;;;;19.10;52.70;;;;;;5043875;28;19920;-50
2022/04/19 09:01:15;;;;;;;;;;;19.20;52.80;;;;;;5045471;28;20305;-49
2022/04/19 09:03:41;;;;;;;;;;;19.20;52.70;;;;;;5048571;28;19973;-48
2022/04/19 09:06:06;;;;;;;;;;;19.20;52.70;;;;;;5040165;28;19924;-49
2022/04/19 09:08:32;;;;;;;;;;;19.20;52.70;;;;;;5043312;28;19917;-50
2022/04/19 09:11:08;;;;;;;;;;;19.20;52.70;;;;;;5044212;28;19920;-49
2022/04/19 09:13:34;;;;;;;;;;;19.20;52.70;;;;;;5042323;28;20430;-50
2022/04/19 09:16:03;;;;;;;;;;;19.10;52.60;;;;;;5042600;28;20177;-47
2022/04/19 09:18:32;;;;;;;;;;;19.10;52.60;;;;;;5042092;28;19913;-50
2022/04/19 09:20:58;;;;;;;;;;;19.20;52.60;;;;;;5043854;28;19919;-49
2022/04/19 09:23:24;;;;;;;;;;;19.20;52.60;;;;;;5044077;28;20297;-50
2022/04/19 09:25:50;;;;;;;;;;;19.20;52.60;;;;;;5043548;28;20393;-49
2022/04/19 09:28:16;;;;;;;;;;;19.20;52.60;;;;;;5044296;28;19913;-47
2022/04/19 09:30:42;;;;;;;;;;;19.20;52.50;;;;;;5042739;28;20006;-50
2022/04/19 09:33:08;;;;;;;;;;;19.20;52.50;;;;;;5043914;28;19955;-48
2022/04/19 09:35:44;;;;;;;;;;;19.20;52.50;;;;;;5043688;28;19921;-51
2022/04/19 09:38:09;;;;;;;;;;;19.20;52.60;;;;;;5043439;28;20038;-47
2022/04/19 09:40:36;;;;;;;;;;;19.20;52.50;;;;;;5042783;28;19920;-48
2022/04/19 09:43:14;;;;;;;;;;;19.20;52.50;;;;;;5044722;28;19920;-47
2022/04/19 09:45:45;;;;;;;;;;;19.20;52.50;;;;;;5047442;28;19920;-49
2022/04/19 09:48:17;;;;;;;;;;;19.20;52.40;;;;;;5046865;28;19992;-49
2022/04/19 09:50:49;;;;;;;;;;;19.20;52.40;;;;;;5045675;28;19987;-51
2022/04/19 09:53:18;;;;;;;;;;;19.20;52.30;;;;;;5047615;28;19962;-49
2022/04/19 09:55:48;;;;;;;;;;;19.20;52.30;;;;;;5046760;28;19939;-51
2022/04/19 09:58:14;;;;;;;;;;;19.20;53.00;;;;;;5045252;28;19945;-50
2022/04/19 10:00:39;;;;;;;;;;;19.20;52.30;;;;;;5046499;28;19952;-53
2022/04/19 10:08:33;;;;;;;;;;;19.20;52.30;;;;;;5045809;28;20072;-53
2022/04/19 10:10:58;;;;;;;;;;;19.20;52.30;;;;;;5044994;28;19917;-50
2022/04/19 10:13:24;;;;;;;;;;;19.20;52.30;;;;;;5046602;28;19917;-52
2022/04/19 10:15:49;;;;;;;;;;;19.20;52.30;;;;;;5046821;28;19940;-49
2022/04/19 10:18:15;;;;;;;;;;;19.20;52.30;;;;;;5047199;28;20000;-50
2022/04/19 10:20:54;;;;;;;;;;;19.20;52.20;;;;;;5046555;28;20007;-51
2022/04/19 10:23:20;;;;;;;;;;;19.20;52.20;;;;;;5037366;28;19913;-49
2022/04/19 10:25:46;;;;;;;;;;;19.30;52.30;;;;;;5047241;28;19917;-52
2022/04/19 10:28:13;;;;;;;;;;;19.20;52.10;;;;;;5046994;28;20665;-50
2022/04/19 10:30:45;;;;;;;;;;;19.20;52.10;;;;;;5045433;28;19912;-51
2022/04/19 10:33:31;;;;;;;;;;;19.20;52.20;;;;;;5046288;28;19923;-48
2022/04/19 10:36:14;;;;;;;;;;;19.30;52.20;;;;;;5046509;28;20665;-50
2022/04/19 10:38:41;;;;;;;;;;;19.20;52.20;;;;;;5044982;28;20440;-49
2022/04/19 10:41:06;;;;;;;;;;;19.30;52.20;;;;;;5045322;28;19928;-49
2022/04/19 10:43:31;;;;;;;;;;;19.20;52.30;;;;;;5046729;28;19912;-49
2022/04/19 10:46:15;;;;;;;;;;;19.30;52.30;;;;;;5047016;28;19913;-49
2022/04/19 10:49:00;;;;;;;;;;;19.20;52.30;;;;;;5045833;28;19913;-50
2022/04/19 10:51:28;;;;;;;;;;;19.20;52.40;;;;;;5046377;28;20120;-48
2022/04/19 10:53:54;;;;;;;;;;;19.20;52.40;;;;;;5040157;28;19917;-51
2022/04/19 10:56:19;;;;;;;;;;;19.20;52.30;;;;;;5046929;28;19923;-50
2022/04/19 10:58:45;;;;;;;;;;;19.20;52.30;;;;;;5045688;28;19912;-52
2022/04/19 11:01:26;;;;;;;;;;;19.20;52.40;;;;;;5046273;28;20336;-50
2022/04/19 11:03:52;;;;;;;;;;;19.20;52.40;;;;;;5061681;28;19919;-48
2022/04/19 11:06:28;;;;;;;;;;;19.20;52.30;;;;;;5046687;28;20270;-49
2022/04/19 11:09:04;;;;;;;;;;;19.20;52.30;;;;;;5045213;28;20344;-49
2022/04/19 11:11:35;;;;;;;;;;;19.30;52.40;;;;;;5044704;28;19920;-49
2022/04/19 11:14:30;;;;;;;;;;;19.20;52.30;;;;;;5045078;28;19919;-49
2022/04/19 11:17:15;;;;;;;;;;;19.30;52.30;;;;;;5032828;28;19921;-50
2022/04/19 11:19:41;;;;;;;;;;;19.30;52.30;;;;;;5045153;28;19913;-50
2022/04/19 11:22:07;;;;;;;;;;;19.30;52.30;;;;;;5044258;28;19923;-52
2022/04/19 11:24:51;;;;;;;;;;;19.30;52.30;;;;;;5044527;28;19917;-51
2022/04/19 11:27:18;;;;;;;;;;;19.30;52.20;;;;;;5045853;28;20000;-48
2022/04/19 11:29:49;;;;;;;;;;;19.30;52.20;;;;;;5045501;28;20127;-52
2022/04/19 11:32:21;;;;;;;;;;;19.30;52.30;;;;;;5045587;28;20012;-48
2022/04/19 11:34:57;;;;;;;;;;;19.30;52.30;;;;;;5044329;28;19917;-49
2022/04/19 11:37:23;;;;;;;;;;;19.30;52.30;;;;;;5044113;28;19999;-48
2022/04/19 11:48:01;;;;;;;;;;;19.30;52.30;;;;;;5045273;28;20000;-50
2022/04/19 11:50:30;;;;;;;;;;;19.30;52.30;;;;;;5043396;28;19913;-49
2022/04/19 11:52:57;;;;;;;;;;;19.30;52.30;;;;;;5043149;28;21430;-50
2022/04/19 11:55:25;;;;;;;;;;;19.30;52.30;;;;;;5043881;28;19990;-49
2022/04/19 11:58:06;;;;;;;;;;;19.30;52.30;;;;;;5045474;28;19913;-51
2022/04/19 12:00:32;;;;;;;;;;;19.30;52.20;;;;;;5045108;28;20429;-47
2022/04/19 12:02:57;;;;;;;;;;;19.40;52.20;;;;;;5045168;28;20005;-51
2022/04/19 12:05:26;;;;;;;;;;;19.30;52.20;;;;;;5043644;28;20516;-54
2022/04/19 12:07:52;;;;;;;;;;;19.30;52.20;;;;;;5044787;28;20358;-53
2022/04/19 12:10:18;;;;;;;;;;;19.40;52.30;;;;;;5045725;28;20500;-52
2022/04/19 12:12:43;;;;;;;;;;;19.30;52.20;;;;;;5044620;28;19963;-49
2022/04/19 12:15:09;;;;;;;;;;;19.40;52.20;;;;;;5046375;28;19916;-52
2022/04/19 12:17:42;;;;;;;;;;;19.40;52.20;;;;;;5046165;28;19912;-51
2022/04/19 12:20:08;;;;;;;;;;;19.40;52.20;;;;;;5044460;28;19913;-50
2022/04/19 12:22:34;;;;;;;;;;;19.40;52.20;;;;;;5045550;28;20457;-52
2022/04/19 12:25:00;;;;;;;;;;;19.40;52.10;;;;;;5045353;28;19919;-53
2022/04/19 12:27:26;;;;;;;;;;;19.40;52.10;;;;;;5044908;28;20040;-50
2022/04/19 12:29:55;;;;;;;;;;;19.40;52.00;;;;;;5043370;28;20420;-51
2022/04/19 12:32:21;;;;;;;;;;;19.40;52.00;;;;;;5044939;28;19917;-49
2022/04/19 12:34:46;;;;;;;;;;;19.40;52.40;;;;;;5044880;28;20396;-49
2022/04/19 12:37:13;;;;;;;;;;;19.40;52.00;;;;;;5043128;28;19925;-50
2022/04/19 12:39:39;;;;;;;;;;;19.40;51.90;;;;;;5044226;28;19920;-50
2022/04/19 12:42:13;;;;;;;;;;;19.40;51.90;;;;;;5044926;28;19913;-49
2022/04/19 12:44:39;;;;;;;;;;;19.40;51.90;;;;;;5044394;28;20359;-50
2022/04/19 12:47:11;;;;;;;;;;;19.40;52.00;;;;;;5043686;28;20391;-49
2022/04/19 12:49:41;;;;;;;;;;;19.40;51.90;;;;;;5043865;28;19943;-51
2022/04/19 12:52:07;;;;;;;;;;;19.40;52.00;;;;;;5044181;28;19925;-52
2022/04/19 12:54:33;;;;;;;;;;;19.40;52.00;;;;;;5043117;28;19974;-50
2022/04/19 12:57:02;;;;;;;;;;;19.40;52.00;;;;;;5044752;28;19913;-49
2022/04/19 12:59:28;;;;;;;;;;;19.40;52.00;;;;;;5042647;28;19945;-50
2022/04/19 13:01:54;;;;;;;;;;;19.30;51.90;;;;;;5044258;28;19917;-48
2022/04/19 13:04:19;;;;;;;;;;;19.30;51.90;;;;;;5044038;28;20434;-50
2022/04/19 13:12:19;;;;;;;;;;;19.30;51.90;;;;;;5044387;28;19952;-50
2022/04/19 13:14:49;;;;;;;;;;;19.30;52.00;;;;;;5044452;28;19917;-51
2022/04/19 13:17:15;;;;;;;;;;;19.30;52.00;;;;;;5042701;28;19920;-50
2022/04/19 13:19:41;;;;;;;;;;;19.30;52.00;;;;;;5048044;28;19920;-52
2022/04/19 13:22:07;;;;;;;;;;;19.30;52.00;;;;;;5046838;28;19921;-49
2022/04/19 13:24:33;;;;;;;;;;;19.30;52.10;;;;;;5048421;28;19917;-52
2022/04/19 13:26:59;;;;;;;;;;;19.30;52.10;;;;;;5047586;28;19962;-51
2022/04/19 13:29:24;;;;;;;;;;;19.30;52.10;;;;;;5048128;28;20032;-51
2022/04/19 13:31:50;;;;;;;;;;;19.30;52.00;;;;;;5048231;28;19920;-50
2022/04/19 13:34:16;;;;;;;;;;;19.30;52.00;;;;;;5048198;28;20266;-50
2022/04/19 13:36:42;;;;;;;;;;;19.30;52.00;;;;;;5047564;28;19925;-50
2022/04/19 13:39:08;;;;;;;;;;;19.30;52.00;;;;;;5047253;28;20393;-50
2022/04/19 13:41:36;;;;;;;;;;;19.40;52.10;;;;;;5046506;28;19959;-49
2022/04/19 13:44:02;;;;;;;;;;;19.30;52.00;;;;;;5047847;28;20421;-48
2022/04/19 13:46:28;;;;;;;;;;;19.30;52.00;;;;;;5047592;28;19913;-51
2022/04/19 13:48:53;;;;;;;;;;;19.40;52.10;;;;;;5047486;28;19920;-50
2022/04/19 13:51:20;;;;;;;;;;;19.40;52.00;;;;;;5047933;28;19913;-49
2022/04/19 13:53:45;;;;;;;;;;;19.40;52.10;;;;;;5047749;28;19920;-48
2022/04/19 13:56:11;;;;;;;;;;;19.40;52.10;;;;;;5046366;28;19925;-49
2022/04/19 13:58:36;;;;;;;;;;;19.40;52.00;;;;;;5045615;28;19920;-51
2022/04/19 14:01:02;;;;;;;;;;;19.40;52.00;;;;;;5047682;28;19959;-51
2022/04/19 14:03:27;;;;;;;;;;;19.40;52.00;;;;;;5047566;28;19913;-49
2022/04/19 14:05:53;;;;;;;;;;;19.40;52.00;;;;;;5047543;28;19983;-50
2022/04/19 14:08:18;;;;;;;;;;;19.40;52.00;;;;;;5047667;28;19917;-50
2022/04/19 14:10:44;;;;;;;;;;;19.40;52.00;;;;;;5046893;28;20435;-49
2022/04/19 14:13:09;;;;;;;;;;;19.40;52.00;;;;;;5047241;28;20419;-49
2022/04/19 14:15:35;;;;;;;;;;;19.40;52.10;;;;;;5047209;28;19916;-50
2022/04/19 14:18:01;;;;;;;;;;;19.40;52.10;;;;;;5047206;28;20321;-53
2022/04/19 14:20:27;;;;;;;;;;;19.40;52.10;;;;;;5046660;28;19958;-51
2022/04/19 14:22:52;;;;;;;;;;;19.40;52.10;;;;;;5047015;28;20348;-50
2022/04/19 14:25:19;;;;;;;;;;;19.40;52.00;;;;;;5045843;28;19939;-50
2022/04/19 14:27:45;;;;;;;;;;;19.40;52.10;;;;;;5045073;28;20297;-50
2022/04/19 14:35:38;;;;;;;;;;;19.40;52.00;;;;;;5046612;28;20373;-48
2022/04/19 14:38:04;;;;;;;;;;;19.30;52.00;;;;;;5046493;28;19912;-50
2022/04/19 14:40:29;;;;;;;;;;;19.40;52.10;;;;;;5044779;28;19912;-49
2022/04/19 14:42:55;;;;;;;;;;;19.30;52.00;;;;;;5045978;28;19912;-51
2022/04/19 14:45:20;;;;;;;;;;;19.30;52.10;;;;;;5046260;28;19978;-50
2022/04/19 14:47:46;;;;;;;;;;;19.40;52.10;;;;;;5045976;28;19913;-51
2022/04/19 14:50:11;;;;;;;;;;;19.30;52.10;;;;;;5045436;28;19921;-50
2022/04/19 14:52:36;;;;;;;;;;;19.30;52.10;;;;;;5046041;28;20369;-49
2022/04/19 14:55:02;;;;;;;;;;;19.40;52.10;;;;;;5046063;28;19940;-49
2022/04/19 14:57:28;;;;;;;;;;;19.40;52.10;;;;;;5045647;28;19948;-50
2022/04/19 14:59:53;;;;;;;;;;;19.40;52.10;;;;;;5045581;28;20313;-51
2022/04/19 15:02:19;;;;;;;;;;;19.40;52.10;;;;;;5046998;28;19963;-49